createdAt,value
2023-03-04T00:22:01.739Z,10.7
2023-03-04T00:52:02.587Z,10.7
2023-03-04T01:22:02.970Z,10.6
2023-03-04T01:52:04.952Z,10.6
2023-03-04T02:22:05.446Z,10.6
2023-03-04T02:52:05.838Z,10.6
2023-03-04T03:22:06.220Z,10.6
2023-03-04T03:52:06.652Z,10.7
2023-03-04T04:22:07.106Z,10.5
2023-03-04T04:52:07.519Z,10.5
2023-03-04T05:22:18.221Z,10.5
2023-03-04T05:52:18.656Z,10.4
2023-03-04T06:22:29.096Z,10.4
2023-03-04T06:52:29.562Z,10.4
2023-03-04T07:22:30.393Z,10.4
2023-03-04T07:52:30.855Z,10.4
2023-03-04T08:22:31.697Z,10.3
2023-03-04T08:52:32.166Z,10.4
2023-03-04T09:22:32.661Z,10.4
2023-03-04T09:52:33.115Z,10.4
2023-03-04T10:22:33.509Z,10.4
2023-03-04T10:52:33.884Z,10.5
2023-03-04T11:22:34.295Z,10.6
2023-03-04T11:52:45.050Z,10.7
2023-03-04T12:22:45.500Z,10.8
2023-03-04T12:52:56.304Z,11
2023-03-04T13:22:56.951Z,11.1
2023-03-04T14:22:57.784Z,11.1
2023-03-04T14:52:58.636Z,11.1
2023-03-04T15:22:59.037Z,11.1
2023-03-04T15:52:59.927Z,11
2023-03-04T16:23:00.352Z,10.9
2023-03-04T16:53:00.780Z,10.9
2023-03-04T17:23:01.188Z,10.9
2023-03-04T17:53:01.623Z,10.9
2023-03-04T18:23:03.235Z,10.8
2023-03-04T18:53:03.652Z,10.9
2023-03-04T19:23:14.499Z,10.9
2023-03-04T19:53:15.374Z,10.8
2023-03-04T20:23:27.695Z,10.8
2023-03-04T20:53:29.727Z,10.8
2023-03-04T21:23:30.730Z,10.8
2023-03-04T21:53:31.146Z,10.7
2023-03-04T22:23:32.034Z,10.7
2023-03-04T22:53:32.427Z,10.7
2023-03-04T23:23:32.808Z,10.6
2023-03-04T23:53:33.253Z,10.6
